Cummings, North Dakota
Current Conditions -  °F | °C
As of 4:53 PM on Tuesday 27 Jan 2015 (Local Time) from KGFK Reporting Station
Overcast Overcast  
Wind Chill: 21°   Ceiling: 600
Heat Index: 32°   Visibility: 10mi
Dew Point: 29°   Wind: 17mph
Humidity: 88%   Direction: 170°S
Pressure: 29.94"   Gusts: 25mph
Location:  47.51°N, 97.08°W
Report Text: KGFK 272253Z 17015G22KT 10SM OVC006 00/M02 A2994 RMK AO2 SLP153 T00001017
Loading
Personal Weather Stations






























Interactive Weather Map New forecast layout! Learn more

10-Day Weather Forecast

Advertisements
Track Severe Weather on mobile